Time;durP1;ratioP1;P1;durP2;ratioP2;P2;SDS_P1;SDS_P2;PMS_P1;PMS_P2;Temp;Humidity;BMP_temperature;BMP_pressure;BME280_temperature;BME280_humidity;BME280_pressure;Samples;Min_cycle;Max_cycle;Signal;HPM_P1;HPM_P2
2024/01/25 00:00:50;;;;;;;22.77;7.68;;;11.90;69.50;;;;;;5067246;28;20055;-57
2024/01/25 00:03:17;;;;;;;27.00;9.32;;;11.90;69.50;;;;;;5071401;28;20072;-55
2024/01/25 00:05:44;;;;;;;19.88;7.45;;;11.90;69.50;;;;;;5067995;28;20047;-54
2024/01/25 00:08:13;;;;;;;28.88;8.65;;;11.90;69.60;;;;;;5071527;28;20032;-58
2024/01/25 00:10:40;;;;;;;26.65;8.88;;;11.90;70.30;;;;;;5063222;28;20072;-54
2024/01/25 00:13:07;;;;;;;20.08;6.07;;;11.90;69.70;;;;;;5066754;28;20040;-55
2024/01/25 00:15:34;;;;;;;22.65;7.75;;;11.90;69.70;;;;;;5061969;28;20049;-55
2024/01/25 00:18:03;;;;;;;22.30;8.23;;;11.90;69.70;;;;;;5061547;28;20045;-53
2024/01/25 00:20:29;;;;;;;21.60;7.45;;;11.90;69.70;;;;;;5071712;28;20052;-52
2024/01/25 00:22:58;;;;;;;26.33;7.70;;;11.80;69.70;;;;;;5067464;28;20071;-53
2024/01/25 00:25:25;;;;;;;21.98;7.93;;;11.80;69.80;;;;;;5063998;28;20064;-52
2024/01/25 00:27:52;;;;;;;22.10;7.60;;;11.80;69.80;;;;;;5064898;28;20040;-59
2024/01/25 00:30:19;;;;;;;31.95;8.52;;;11.80;69.90;;;;;;5060512;28;20048;-56
2024/01/25 00:32:46;;;;;;;29.15;8.45;;;11.80;70.00;;;;;;5068862;28;20090;-53
2024/01/25 00:35:13;;;;;;;25.90;7.80;;;11.80;70.00;;;;;;5067128;28;20045;-55
2024/01/25 00:37:41;;;;;;;28.17;8.50;;;11.80;70.00;;;;;;5071241;28;20067;-52
2024/01/25 00:40:08;;;;;;;24.25;7.95;;;11.80;70.20;;;;;;5067404;28;20091;-55
2024/01/25 00:42:52;;;;;;;29.23;8.25;;;11.80;70.30;;;;;;5064696;28;20429;-54
2024/01/25 00:45:20;;;;;;;24.52;7.70;;;11.80;70.40;;;;;;5066971;28;20056;-52
2024/01/25 00:47:50;;;;;;;22.92;7.75;;;11.80;70.30;;;;;;5067443;28;20072;-55
2024/01/25 00:50:20;;;;;;;;;;;11.80;70.50;;;;;;5067644;28;20045;-57
2024/01/25 00:52:48;;;;;;;26.55;8.68;;;11.80;70.60;;;;;;5063846;28;19927;-53
2024/01/25 00:55:16;;;;;;;33.10;9.00;;;11.80;70.00;;;;;;5058707;28;20040;-55
2024/01/25 00:57:44;;;;;;;27.23;8.07;;;11.80;70.00;;;;;;5064089;28;20502;-52
2024/01/25 01:00:12;;;;;;;25.63;9.13;;;11.80;70.00;;;;;;5070337;28;20052;-53
2024/01/25 01:02:45;;;;;;;27.38;7.35;;;11.70;70.00;;;;;;5046919;28;20071;-52
2024/01/25 01:05:15;;;;;;;23.80;7.60;;;11.70;70.30;;;;;;5068701;28;20564;-55
2024/01/25 01:07:44;;;;;;;28.40;8.68;;;11.70;70.10;;;;;;5066969;28;20048;-55
2024/01/25 01:10:14;;;;;;;;;;;11.60;70.20;;;;;;5068764;28;20102;-53
2024/01/25 01:12:41;;;;;;;26.50;7.78;;;11.60;70.40;;;;;;5064858;28;19924;-53
2024/01/25 01:15:08;;;;;;;22.05;7.90;;;11.60;69.90;;;;;;5070207;28;20063;-55
2024/01/25 01:17:35;;;;;;;27.80;9.43;;;11.50;70.10;;;;;;5061740;28;20049;-54
2024/01/25 01:20:02;;;;;;;19.75;6.97;;;11.40;70.40;;;;;;5058736;28;20052;-54
2024/01/25 01:22:31;;;;;;;25.08;9.02;;;11.40;70.60;;;;;;5057660;28;20434;-56
2024/01/25 01:24:57;;;;;;;23.20;7.25;;;11.40;70.70;;;;;;5059362;28;20045;-54
2024/01/25 01:27:24;;;;;;;23.02;7.13;;;11.30;70.80;;;;;;5066336;28;20535;-53
2024/01/25 01:29:55;;;;;;;26.02;7.90;;;11.30;70.90;;;;;;5066892;28;20119;-54
2024/01/25 01:32:22;;;;;;;29.13;8.52;;;11.20;71.00;;;;;;5065735;28;20044;-55
2024/01/25 01:34:49;;;;;;;25.60;7.93;;;11.20;71.10;;;;;;5062583;28;20053;-52
2024/01/25 01:37:16;;;;;;;31.38;9.20;;;11.10;71.10;;;;;;5065004;28;20044;-56
2024/01/25 01:39:42;;;;;;;27.42;8.18;;;11.10;71.30;;;;;;5066219;28;20498;-54
2024/01/25 01:42:09;;;;;;;26.35;7.75;;;11.10;71.40;;;;;;5069416;28;20388;-53
2024/01/25 01:44:36;;;;;;;32.25;9.07;;;11.00;71.50;;;;;;5066497;28;20099;-53
2024/01/25 01:47:03;;;;;;;32.80;9.07;;;11.00;71.70;;;;;;5068891;28;20094;-53
2024/01/25 01:49:30;;;;;;;24.20;8.80;;;10.90;71.70;;;;;;5069029;28;20079;-57
2024/01/25 01:51:57;;;;;;;28.63;9.30;;;10.90;71.80;;;;;;5064988;28;20065;-55
2024/01/25 01:54:25;;;;;;;27.80;8.50;;;10.90;71.90;;;;;;5069857;28;20413;-53
2024/01/25 01:56:52;;;;;;;29.38;8.75;;;10.80;72.00;;;;;;5069301;28;20052;-52
2024/01/25 01:59:20;;;;;;;28.98;8.27;;;10.80;72.10;;;;;;5068674;28;20664;-52
2024/01/25 02:01:50;;;;;;;26.85;8.38;;;10.80;72.20;;;;;;5063146;28;20052;-51
2024/01/25 02:04:16;;;;;;;29.08;7.82;;;10.80;72.30;;;;;;5064897;28;20131;-53
2024/01/25 02:06:45;;;;;;;28.30;7.75;;;10.70;72.40;;;;;;5060140;28;20517;-54
2024/01/25 02:09:15;;;;;;;38.55;9.45;;;10.70;72.50;;;;;;5066976;28;20044;-53
2024/01/25 02:11:42;;;;;;;26.65;8.75;;;10.70;72.80;;;;;;5067146;28;20131;-54
2024/01/25 02:14:11;;;;;;;27.40;8.45;;;10.70;72.70;;;;;;5058362;28;20112;-55
2024/01/25 02:16:38;;;;;;;25.25;8.15;;;10.70;72.80;;;;;;5063862;28;20040;-53
2024/01/25 02:19:07;;;;;;;28.25;9.30;;;10.60;72.70;;;;;;5067569;28;20068;-52
2024/01/25 02:21:36;;;;;;;32.28;8.45;;;10.60;72.70;;;;;;5065392;28;20750;-57
2024/01/25 02:24:06;;;;;;;33.92;8.60;;;10.60;72.90;;;;;;5069385;28;20675;-54
2024/01/25 02:26:33;;;;;;;30.50;8.90;;;10.60;72.90;;;;;;5067257;28;20144;-53
2024/01/25 02:29:00;;;;;;;29.25;9.02;;;10.50;73.00;;;;;;5067934;28;20067;-52
2024/01/25 02:31:27;;;;;;;26.73;8.98;;;10.50;73.10;;;;;;5063386;28;20116;-55
2024/01/25 02:33:54;;;;;;;33.78;9.30;;;10.50;73.20;;;;;;5065321;28;20068;-53
2024/01/25 02:36:24;;;;;;;35.97;8.38;;;10.50;73.30;;;;;;5064613;28;20102;-54
2024/01/25 02:38:50;;;;;;;26.50;8.52;;;10.50;73.30;;;;;;5067054;28;20502;-58
2024/01/25 02:41:17;;;;;;;28.58;8.52;;;10.40;73.40;;;;;;5067968;28;20068;-54
2024/01/25 02:43:44;;;;;;;28.50;9.35;;;10.40;73.40;;;;;;5060043;28;20052;-55
2024/01/25 02:46:12;;;;;;;33.13;8.68;;;10.40;73.50;;;;;;5068770;28;20891;-52
2024/01/25 02:48:45;;;;;;;31.38;7.93;;;10.50;73.60;;;;;;5069002;28;20043;-52
2024/01/25 02:51:12;;;;;;;26.70;8.35;;;10.30;73.50;;;;;;5063070;28;20124;-54
2024/01/25 02:53:46;;;;;;;30.33;9.05;;;10.30;73.50;;;;;;5064686;28;20451;-56
2024/01/25 02:56:13;;;;;;;33.55;9.30;;;10.30;73.80;;;;;;5068364;28;20075;-52
2024/01/25 02:58:40;;;;;;;34.40;10.38;;;10.20;73.60;;;;;;5067641;28;20076;-54
2024/01/25 03:01:10;;;;;;;30.48;9.68;;;10.20;73.80;;;;;;5059209;28;20135;-54
2024/01/25 03:03:38;;;;;;;29.35;8.93;;;10.20;73.80;;;;;;5065433;28;20068;-57
2024/01/25 03:06:06;;;;;;;27.42;9.30;;;10.20;73.90;;;;;;5068510;28;20068;-52
2024/01/25 03:08:36;;;;;;;30.63;8.80;;;10.20;73.80;;;;;;5069043;28;20047;-54
2024/01/25 03:11:05;;;;;;;23.30;9.27;;;10.20;73.80;;;;;;5064536;28;20061;-55
2024/01/25 03:13:32;;;;;;;22.02;7.85;;;10.10;73.70;;;;;;5064896;28;20465;-54
2024/01/25 03:15:58;;;;;;;29.13;8.40;;;10.10;73.50;;;;;;5060080;28;20064;-54
2024/01/25 03:18:30;;;;;;;25.13;8.63;;;10.10;73.40;;;;;;5054110;28;20414;-56
2024/01/25 03:20:57;;;;;;;24.98;9.02;;;10.00;73.40;;;;;;5056995;28;20053;-55
2024/01/25 03:23:24;;;;;;;25.13;9.43;;;10.00;73.20;;;;;;5065138;28;20123;-54
2024/01/25 03:25:53;;;;;;;21.25;7.63;;;9.90;73.20;;;;;;5063443;28;20091;-53
2024/01/25 03:28:20;;;;;;;29.92;10.07;;;9.90;73.60;;;;;;5055057;28;20084;-52
2024/01/25 03:30:47;;;;;;;24.42;7.55;;;9.80;73.70;;;;;;5070038;28;20444;-54
2024/01/25 03:33:14;;;;;;;26.25;8.55;;;9.80;73.90;;;;;;5069804;28;20098;-56
2024/01/25 03:35:41;;;;;;;27.48;8.52;;;9.80;73.90;;;;;;5071397;28;20051;-55
2024/01/25 03:38:08;;;;;;;27.65;9.20;;;9.70;74.10;;;;;;5071498;28;20107;-55
2024/01/25 03:40:36;;;;;;;27.27;8.98;;;9.70;74.20;;;;;;5070318;28;20072;-55
2024/01/25 03:43:03;;;;;;;31.92;9.85;;;9.70;74.50;;;;;;5056764;28;20068;-54
2024/01/25 03:45:44;;;;;;;38.45;9.68;;;9.70;74.50;;;;;;5071870;28;20048;-56
2024/01/25 03:48:11;;;;;;;27.13;8.38;;;9.70;74.70;;;;;;5071007;28;20068;-56
2024/01/25 03:50:38;;;;;;;28.60;8.63;;;9.70;74.80;;;;;;5070322;28;20062;-52
2024/01/25 03:53:06;;;;;;;29.00;9.15;;;9.60;74.80;;;;;;5071916;28;20033;-56
2024/01/25 03:55:33;;;;;;;28.23;8.55;;;9.60;74.90;;;;;;5071810;28;20056;-54
2024/01/25 03:57:59;;;;;;;21.75;8.68;;;9.60;74.90;;;;;;5070827;28;20063;-54
2024/01/25 04:00:26;;;;;;;29.42;7.85;;;9.60;75.00;;;;;;5068906;28;20128;-53
2024/01/25 04:02:58;;;;;;;27.85;9.20;;;9.60;75.00;;;;;;5069166;28;20047;-52
2024/01/25 04:05:26;;;;;;;27.30;8.15;;;9.60;75.00;;;;;;5070389;28;20052;-54
2024/01/25 04:07:58;;;;;;;30.83;9.18;;;9.60;75.00;;;;;;5071612;28;20482;-52
2024/01/25 04:10:27;;;;;;;30.75;8.48;;;9.50;75.00;;;;;;5070832;28;20040;-53
2024/01/25 04:13:01;;;;;;;31.88;8.77;;;9.50;75.00;;;;;;5062406;28;20041;-54
2024/01/25 04:15:28;;;;;;;28.60;8.27;;;9.50;75.10;;;;;;5071428;28;20486;-53
2024/01/25 04:18:08;;;;;;;28.70;8.65;;;9.50;75.10;;;;;;5069502;28;20048;-56
2024/01/25 04:20:44;;;;;;;30.08;8.13;;;9.40;75.30;;;;;;5070296;28;20059;-56
2024/01/25 04:23:13;;;;;;;31.10;8.77;;;9.50;75.20;;;;;;5071318;28;20146;-58
2024/01/25 04:25:42;;;;;;;24.50;7.72;;;9.40;75.10;;;;;;5069970;28;20063;-53
2024/01/25 04:28:12;;;;;;;28.45;7.68;;;9.40;75.10;;;;;;5065750;28;20131;-54
2024/01/25 04:30:39;;;;;;;24.27;7.50;;;9.40;75.10;;;;;;5069706;28;20391;-59
2024/01/25 04:33:06;;;;;;;21.95;7.88;;;9.40;75.10;;;;;;5069776;28;20600;-53
2024/01/25 04:35:35;;;;;;;29.63;9.13;;;9.40;75.10;;;;;;5070702;28;20040;-54
2024/01/25 04:38:04;;;;;;;32.25;9.63;;;9.30;75.20;;;;;;5071077;28;20040;-53
2024/01/25 04:40:36;;;;;;;26.63;8.30;;;9.30;75.20;;;;;;5070140;28;20046;-53
2024/01/25 04:43:04;;;;;;;28.15;7.72;;;9.30;75.20;;;;;;5070468;28;20045;-52
2024/01/25 04:45:31;;;;;;;28.45;8.55;;;9.30;75.20;;;;;;5070810;28;20043;-58
2024/01/25 04:47:57;;;;;;;23.58;8.95;;;9.30;75.20;;;;;;5071019;28;20704;-54
2024/01/25 04:50:26;;;;;;;27.25;8.02;;;9.30;75.20;;;;;;5066363;28;20120;-55
2024/01/25 04:52:55;;;;;;;28.55;8.65;;;9.20;75.20;;;;;;5061942;28;20037;-53
2024/01/25 04:55:25;;;;;;;22.33;8.13;;;9.20;75.30;;;;;;5070469;28;20074;-54
2024/01/25 04:57:53;;;;;;;22.27;7.30;;;9.20;75.30;;;;;;5070910;28;20089;-52
2024/01/25 05:00:22;;;;;;;24.95;7.70;;;9.20;75.30;;;;;;5068280;28;20044;-51
2024/01/25 05:02:52;;;;;;;23.33;8.07;;;9.10;75.20;;;;;;5070258;28;20053;-55
2024/01/25 05:05:18;;;;;;;21.52;7.57;;;9.20;75.30;;;;;;5062582;28;20102;-52
2024/01/25 05:07:47;;;;;;;20.33;7.05;;;9.10;75.20;;;;;;5070548;28;20421;-55
2024/01/25 05:10:19;;;;;;;24.80;7.27;;;9.10;75.20;;;;;;5058922;28;20039;-53
2024/01/25 05:12:46;;;;;;;27.25;8.18;;;9.10;75.10;;;;;;5070536;28;20103;-54
2024/01/25 05:15:18;;;;;;;28.70;7.88;;;9.10;75.20;;;;;;5070413;28;20040;-57
2024/01/25 05:17:44;;;;;;;22.42;7.30;;;9.00;75.10;;;;;;5052979;28;20075;-55
2024/01/25 05:20:15;;;;;;;21.20;6.97;;;9.00;75.10;;;;;;5068941;28;20055;-55
2024/01/25 05:22:42;;;;;;;28.25;9.43;;;9.00;75.00;;;;;;5062895;28;20049;-56
2024/01/25 05:25:09;;;;;;;30.67;8.88;;;8.90;74.80;;;;;;5062342;28;20110;-52
2024/01/25 05:27:36;;;;;;;25.98;8.73;;;8.90;74.80;;;;;;5061533;28;20063;-54
2024/01/25 05:30:04;;;;;;;23.75;10.02;;;8.90;74.80;;;;;;5068376;28;20123;-52
2024/01/25 05:32:32;;;;;;;28.05;11.32;;;8.90;74.60;;;;;;5063624;28;20110;-52
2024/01/25 05:34:59;;;;;;;29.38;12.88;;;8.80;74.40;;;;;;5061457;28;20388;-53
2024/01/25 05:37:26;;;;;;;27.90;11.90;;;8.80;74.40;;;;;;5060708;28;20450;-55
2024/01/25 05:39:53;;;;;;;22.80;11.05;;;8.80;74.30;;;;;;5066001;28;20037;-58
2024/01/25 05:42:22;;;;;;;21.13;9.73;;;8.80;74.00;;;;;;5051813;28;20037;-53
2024/01/25 05:44:49;;;;;;;24.55;8.98;;;8.70;73.60;;;;;;5060997;28;20040;-53
2024/01/25 05:47:16;;;;;;;24.25;9.70;;;8.70;73.30;;;;;;5057720;28;20071;-52
2024/01/25 05:49:42;;;;;;;27.92;8.73;;;8.60;73.40;;;;;;5058613;28;20119;-52
2024/01/25 05:52:09;;;;;;;27.00;8.63;;;8.50;73.80;;;;;;5053789;28;20070;-53
2024/01/25 05:54:36;;;;;;;25.17;8.88;;;8.50;74.30;;;;;;5050567;28;20495;-53
2024/01/25 05:57:03;;;;;;;23.05;7.72;;;8.50;74.60;;;;;;5053800;28;20103;-51
2024/01/25 05:59:30;;;;;;;25.10;8.13;;;8.50;75.50;;;;;;5063796;28;20466;-53
2024/01/25 06:01:57;;;;;;;28.85;8.00;;;8.50;75.20;;;;;;5061044;28;20123;-55
2024/01/25 06:04:24;;;;;;;21.65;7.13;;;8.50;75.40;;;;;;5066071;28;20045;-55
2024/01/25 06:06:50;;;;;;;21.75;7.25;;;8.50;75.50;;;;;;5068630;28;20044;-56
2024/01/25 06:09:17;;;;;;;27.73;8.98;;;8.40;75.60;;;;;;5052454;28;20048;-57
2024/01/25 06:11:47;;;;;;;32.25;10.23;;;8.50;75.70;;;;;;5050157;28;20052;-54
2024/01/25 06:14:13;;;;;;;19.80;7.20;;;8.50;75.70;;;;;;5064186;28;20033;-55
2024/01/25 06:16:40;;;;;;;24.67;8.40;;;8.40;75.80;;;;;;5063121;28;20044;-55
2024/01/25 06:19:07;;;;;;;24.35;7.93;;;8.40;75.80;;;;;;5069703;28;20052;-54
2024/01/25 06:21:35;;;;;;;30.48;9.48;;;8.40;76.00;;;;;;5049651;28;20656;-55
2024/01/25 06:24:02;;;;;;;25.83;10.23;;;8.40;76.10;;;;;;5058308;28;20045;-54
2024/01/25 06:26:29;;;;;;;27.15;9.98;;;8.40;76.10;;;;;;5066616;28;20461;-56
2024/01/25 06:28:59;;;;;;;22.70;8.57;;;8.40;76.20;;;;;;5067801;28;20086;-53
2024/01/25 06:31:26;;;;;;;28.30;9.27;;;8.40;76.30;;;;;;5058375;28;20051;-54
2024/01/25 06:33:53;;;;;;;22.88;7.93;;;8.40;76.40;;;;;;5060852;28;20045;-55
2024/01/25 06:36:20;;;;;;;39.25;9.38;;;8.40;76.50;;;;;;5060382;28;20036;-56
2024/01/25 06:38:47;;;;;;;25.00;8.25;;;8.40;76.50;;;;;;5067574;28;20123;-55
2024/01/25 06:41:20;;;;;;;23.70;8.57;;;8.40;76.70;;;;;;5061660;28;20510;-55
2024/01/25 06:43:47;;;;;;;30.50;8.02;;;8.40;76.70;;;;;;5050520;28;20465;-55
2024/01/25 06:46:14;;;;;;;25.90;8.50;;;8.40;76.80;;;;;;5064268;28;20119;-54
2024/01/25 06:48:40;;;;;;;31.50;10.50;;;8.40;76.80;;;;;;5065490;28;20040;-54
2024/01/25 06:51:08;;;;;;;35.60;9.75;;;8.40;76.80;;;;;;5059757;28;20037;-51
2024/01/25 06:53:34;;;;;;;26.40;8.10;;;8.40;76.80;;;;;;5062033;28;20119;-58
2024/01/25 06:56:02;;;;;;;26.55;8.52;;;8.40;76.80;;;;;;5069032;28;20048;-55
2024/01/25 06:58:29;;;;;;;29.77;9.07;;;8.40;76.90;;;;;;5072037;28;20078;-55
2024/01/25 07:00:57;;;;;;;33.08;9.57;;;8.40;76.90;;;;;;5068055;28;20440;-52
2024/01/25 07:03:24;;;;;;;44.13;11.10;;;8.40;77.00;;;;;;5065889;28;20044;-52
2024/01/25 07:05:51;;;;;;;31.15;10.00;;;8.40;77.00;;;;;;5069821;28;20072;-57
2024/01/25 07:08:18;;;;;;;31.30;10.18;;;8.40;77.00;;;;;;5069047;28;20056;-56
2024/01/25 07:10:45;;;;;;;28.58;8.82;;;8.40;77.10;;;;;;5069632;28;20550;-53
2024/01/25 07:13:13;;;;;;;25.67;9.13;;;8.30;77.20;;;;;;5059310;28;20040;-55
2024/01/25 07:15:39;;;;;;;35.45;10.35;;;8.40;77.40;;;;;;5070682;28;20498;-58
2024/01/25 07:18:06;;;;;;;31.17;9.45;;;8.40;77.50;;;;;;5064291;28;20059;-54
2024/01/25 07:20:33;;;;;;;38.25;11.13;;;8.30;77.70;;;;;;5068118;28;20119;-53
2024/01/25 07:23:00;;;;;;;33.97;11.35;;;8.40;77.90;;;;;;5055643;28;20037;-56
2024/01/25 07:25:29;;;;;;;36.50;11.75;;;8.40;78.00;;;;;;5069008;28;20157;-54
2024/01/25 07:27:56;;;;;;;31.92;10.95;;;8.40;78.10;;;;;;5054759;28;20068;-52
2024/01/25 07:30:22;;;;;;;34.78;10.85;;;8.40;78.50;;;;;;5063637;28;20041;-54
2024/01/25 07:32:49;;;;;;;35.78;11.43;;;8.50;78.50;;;;;;5067004;28;20093;-52
2024/01/25 07:35:16;;;;;;;35.13;11.13;;;8.50;78.60;;;;;;5069640;28;20054;-55
2024/01/25 07:37:43;;;;;;;35.40;10.80;;;8.50;78.80;;;;;;5072691;28;20406;-53
2024/01/25 07:40:10;;;;;;;26.02;10.43;;;8.50;78.80;;;;;;5069961;28;20607;-52
2024/01/25 07:42:37;;;;;;;29.60;12.40;;;8.60;78.80;;;;;;5063075;28;20041;-55
2024/01/25 07:45:04;;;;;;;33.38;12.98;;;8.60;78.80;;;;;;5069469;28;20036;-53
2024/01/25 07:47:32;;;;;;;36.10;13.50;;;8.60;78.80;;;;;;5066035;28;20051;-56
2024/01/25 07:49:59;;;;;;;37.88;14.30;;;8.70;78.80;;;;;;5069283;28;20048;-54
2024/01/25 07:52:28;;;;;;;47.35;14.10;;;8.70;78.90;;;;;;5062176;28;20464;-53
2024/01/25 07:54:55;;;;;;;29.67;13.65;;;8.70;79.00;;;;;;5047847;28;20554;-51
2024/01/25 07:57:22;;;;;;;34.35;12.55;;;8.80;79.00;;;;;;5066449;28;20489;-53
2024/01/25 07:59:49;;;;;;;42.53;12.93;;;8.80;79.00;;;;;;5062519;28;20593;-51
2024/01/25 08:02:16;;;;;;;32.60;11.60;;;8.80;78.90;;;;;;5065931;28;20132;-56
2024/01/25 08:04:47;;;;;;;29.45;10.80;;;8.90;79.00;;;;;;5064766;28;20036;-53
2024/01/25 08:07:14;;;;;;;33.53;11.77;;;8.90;79.00;;;;;;5071363;28;20045;-55
2024/01/25 08:09:43;;;;;;;29.95;12.57;;;8.90;78.90;;;;;;5069835;28;20044;-54
2024/01/25 08:12:11;;;;;;;35.22;11.48;;;9.00;79.00;;;;;;5060849;28;20036;-55
2024/01/25 08:14:37;;;;;;;34.90;13.20;;;9.00;79.10;;;;;;5068217;28;20150;-52
2024/01/25 08:17:04;;;;;;;32.13;12.63;;;9.10;79.00;;;;;;5064311;28;20493;-52
2024/01/25 08:19:31;;;;;;;31.08;12.98;;;9.10;79.00;;;;;;5067498;28;20037;-58
2024/01/25 08:21:58;;;;;;;34.22;12.10;;;9.10;78.90;;;;;;5066088;28;20044;-57
2024/01/25 08:24:26;;;;;;;32.30;11.77;;;9.20;78.90;;;;;;5070164;28;20044;-55
2024/01/25 08:26:53;;;;;;;32.75;11.48;;;9.20;78.80;;;;;;5063373;28;20384;-57
2024/01/25 08:29:22;;;;;;;36.38;12.15;;;9.20;78.70;;;;;;5071403;28;20068;-52
2024/01/25 08:31:49;;;;;;;28.77;11.98;;;9.30;78.80;;;;;;5065580;28;20398;-55
2024/01/25 08:34:16;;;;;;;32.75;12.90;;;9.30;78.70;;;;;;5064866;28;20045;-55
2024/01/25 08:36:43;;;;;;;35.53;12.70;;;9.40;78.70;;;;;;5062530;28;20039;-52
2024/01/25 08:39:09;;;;;;;31.55;13.00;;;9.40;78.60;;;;;;5071534;28;20044;-54
2024/01/25 08:41:36;;;;;;;35.28;12.35;;;9.40;78.50;;;;;;5058633;28;20057;-55
2024/01/25 08:44:06;;;;;;;34.58;12.68;;;9.40;78.40;;;;;;5070571;28;20048;-56
2024/01/25 08:46:33;;;;;;;38.50;13.35;;;9.50;78.40;;;;;;5066590;28;20044;-56
2024/01/25 08:49:01;;;;;;;35.50;11.82;;;9.50;78.40;;;;;;5071025;28;20556;-52
2024/01/25 08:51:28;;;;;;;35.78;12.20;;;9.50;78.30;;;;;;5062198;28;20140;-52
2024/01/25 08:53:57;;;;;;;30.77;11.90;;;9.50;78.30;;;;;;5071639;28;20633;-56
2024/01/25 08:56:23;;;;;;;30.00;11.95;;;9.60;78.40;;;;;;5065018;28;20563;-56
2024/01/25 08:58:52;;;;;;;28.52;11.05;;;9.60;78.30;;;;;;5063618;28;20048;-53
2024/01/25 09:01:18;;;;;;;35.53;12.98;;;9.60;78.30;;;;;;5062633;28;20119;-56
2024/01/25 09:03:47;;;;;;;33.55;13.80;;;9.70;79.00;;;;;;5059341;28;20106;-56
2024/01/25 09:06:15;;;;;;;32.10;12.63;;;9.70;78.30;;;;;;5066928;28;20048;-59
2024/01/25 09:08:42;;;;;;;26.65;10.63;;;9.70;78.20;;;;;;5060179;28;20087;-53
2024/01/25 09:11:10;;;;;;;27.20;12.20;;;9.80;78.30;;;;;;5079352;23;20060;31
2024/01/25 09:13:44;;;;;;;31.48;11.85;;;9.80;78.30;;;;;;5033781;28;20092;-49
2024/01/25 09:16:12;;;;;;;32.22;12.27;;;9.80;78.20;;;;;;5026019;28;20051;-49
2024/01/25 09:18:39;;;;;;;37.13;13.02;;;9.90;78.20;;;;;;5031331;28;20041;-49
2024/01/25 09:21:06;;;;;;;28.10;11.75;;;9.90;78.00;;;;;;5029966;28;20038;-49
2024/01/25 09:23:35;;;;;;;29.42;12.93;;;10.00;77.80;;;;;;5009373;28;20073;-52
2024/01/25 09:26:03;;;;;;;30.70;12.73;;;10.10;77.80;;;;;;5009891;28;20041;-49
2024/01/25 09:28:32;;;;;;;29.02;11.68;;;10.00;77.60;;;;;;5014916;28;20092;-47
2024/01/25 09:30:59;;;;;;;38.17;12.68;;;10.10;77.60;;;;;;5006664;28;20120;-51
2024/01/25 09:33:25;;;;;;;25.27;11.13;;;10.10;77.60;;;;;;5010530;28;20117;-48
2024/01/25 09:35:52;;;;;;;31.92;12.88;;;10.10;77.60;;;;;;5010389;28;20042;-50
2024/01/25 09:38:20;;;;;;;28.33;11.27;;;10.20;77.70;;;;;;5011093;28;20049;-51
2024/01/25 09:40:48;;;;;;;41.67;12.05;;;10.20;77.60;;;;;;5009419;28;20042;-52
2024/01/25 09:43:15;;;;;;;37.33;12.60;;;10.20;77.60;;;;;;5010653;28;20050;-51
2024/01/25 09:45:44;;;;;;;34.88;11.63;;;10.20;77.60;;;;;;5010305;28;20125;-51
2024/01/25 09:48:10;;;;;;;32.08;11.77;;;10.30;77.50;;;;;;5007880;28;20045;-51
2024/01/25 09:50:43;;;;;;;29.75;12.65;;;10.30;77.40;;;;;;5009622;28;20057;-52
2024/01/25 09:53:20;;;;;;;32.30;12.80;;;10.40;77.40;;;;;;5009956;28;20045;-52
2024/01/25 09:56:07;;;;;;;26.30;11.93;;;10.40;77.30;;;;;;5007142;28;20448;-51
2024/01/25 09:58:39;;;;;;;32.65;13.20;;;10.40;77.20;;;;;;5009198;28;20046;-49
2024/01/25 10:01:10;;;;;;;27.45;12.13;;;10.50;77.30;;;;;;5006377;28;20039;-52
2024/01/25 10:03:44;;;;;;;37.25;13.52;;;10.50;77.40;;;;;;5009969;28;20038;-50
2024/01/25 10:06:12;;;;;;;33.17;13.82;;;10.60;77.30;;;;;;5009909;28;20046;-50
2024/01/25 10:08:39;;;;;;;31.15;12.90;;;10.60;77.20;;;;;;5007699;28;20120;-52
2024/01/25 10:11:08;;;;;;;36.13;13.10;;;10.70;77.20;;;;;;5009319;28;20042;-52
2024/01/25 10:13:44;;;;;;;31.00;12.60;;;10.70;77.30;;;;;;5010358;28;20045;-51
2024/01/25 10:16:15;;;;;;;34.92;12.35;;;10.80;77.50;;;;;;5009415;28;20065;-52
2024/01/25 10:18:44;;;;;;;34.97;13.37;;;10.80;77.20;;;;;;5007566;28;20053;-52
2024/01/25 10:21:13;;;;;;;30.52;13.00;;;10.90;77.10;;;;;;5009103;28;20308;-50
2024/01/25 10:23:48;;;;;;;33.53;14.07;;;11.00;77.00;;;;;;5010169;28;20104;-49
2024/01/25 10:26:17;;;;;;;36.47;13.55;;;11.00;76.80;;;;;;5000145;28;20042;-49
2024/01/25 10:28:51;;;;;;;31.65;12.63;;;11.10;76.70;;;;;;5012755;28;20409;-52
2024/01/25 10:31:24;;;;;;;34.90;14.38;;;11.20;76.70;;;;;;5004357;28;20049;-50
2024/01/25 10:33:55;;;;;;;26.20;12.13;;;11.20;77.20;;;;;;5006096;28;20617;-49
2024/01/25 10:36:25;;;;;;;43.65;13.98;;;11.30;76.50;;;;;;5008789;28;20045;-51
2024/01/25 10:38:57;;;;;;;37.90;13.32;;;11.30;76.20;;;;;;5003859;28;20084;-48
2024/01/25 10:41:25;;;;;;;32.08;11.88;;;11.40;76.10;;;;;;5009405;28;20125;-52
2024/01/25 10:43:55;;;;;;;27.02;11.82;;;11.40;75.90;;;;;;5010672;28;20044;-50
2024/01/25 10:46:22;;;;;;;35.28;13.00;;;11.40;75.90;;;;;;5009212;28;20096;-47
2024/01/25 10:48:51;;;;;;;30.15;12.07;;;11.50;76.00;;;;;;4989265;28;20073;-50
2024/01/25 10:51:20;;;;;;;30.58;12.95;;;11.50;75.90;;;;;;5009441;28;20045;-47
2024/01/25 10:53:48;;;;;;;31.85;13.63;;;11.60;75.70;;;;;;5010430;28;20132;-52
2024/01/25 10:56:14;;;;;;;27.48;14.07;;;11.60;75.60;;;;;;5009602;28;20042;-48
2024/01/25 10:58:41;;;;;;;33.80;14.55;;;11.60;75.50;;;;;;5006738;28;20129;-48
2024/01/25 11:01:12;;;;;;;35.67;15.10;;;11.60;75.30;;;;;;5006479;28;20448;-52
2024/01/25 11:03:45;;;;;;;32.40;16.38;;;11.70;75.20;;;;;;5009935;28;20045;-49
2024/01/25 11:06:13;;;;;;;39.13;16.65;;;11.70;74.90;;;;;;5009249;28;20041;-52
2024/01/25 11:08:40;;;;;;;39.35;18.67;;;11.80;74.70;;;;;;5009649;28;20061;-50
2024/01/25 11:11:13;;;;;;;35.03;17.45;;;11.80;74.50;;;;;;5007403;28;20073;-49
2024/01/25 11:13:41;;;;;;;39.92;17.30;;;11.80;74.50;;;;;;5008723;28;20042;-52
2024/01/25 11:16:16;;;;;;;39.42;17.15;;;11.80;74.50;;;;;;5007974;28;20049;-54
2024/01/25 11:19:05;;;;;;;37.40;16.88;;;11.80;74.40;;;;;;5007912;28;20046;-55
2024/01/25 11:21:49;;;;;;;41.75;17.45;;;11.80;75.20;;;;;;5005904;28;20045;-55
2024/01/25 11:24:25;;;;;;;37.30;16.27;;;11.80;74.60;;;;;;5003385;28;20038;-55
2024/01/25 11:26:54;;;;;;;42.45;18.40;;;11.80;74.50;;;;;;5008200;28;20057;-52
2024/01/25 11:29:23;;;;;;;38.50;19.25;;;11.90;74.50;;;;;;5005877;28;20046;-54
2024/01/25 11:31:51;;;;;;;36.60;16.55;;;11.90;74.50;;;;;;5005616;28;20404;-54
2024/01/25 11:34:18;;;;;;;44.97;17.88;;;11.90;74.50;;;;;;5005729;28;20052;-55
2024/01/25 11:36:48;;;;;;;39.70;18.88;;;12.00;74.50;;;;;;5007305;28;20041;-54
2024/01/25 11:39:16;;;;;;;33.42;17.45;;;12.00;74.40;;;;;;5009642;28;20056;-54
2024/01/25 11:41:44;;;;;;;40.58;17.98;;;12.10;74.20;;;;;;5009807;28;20081;-53
2024/01/25 11:44:14;;;;;;;39.90;18.25;;;12.10;74.00;;;;;;5009162;28;20050;-54
2024/01/25 11:46:42;;;;;;;38.45;16.40;;;12.10;73.70;;;;;;5010245;28;20077;-53
2024/01/25 11:49:09;;;;;;;34.25;16.85;;;12.10;73.60;;;;;;5011060;28;20038;-54
2024/01/25 11:51:36;;;;;;;31.00;16.00;;;12.20;73.60;;;;;;5009913;28;20400;-53
2024/01/25 11:54:07;;;;;;;33.13;16.02;;;12.20;73.60;;;;;;5009453;28;20056;-55
2024/01/25 11:56:40;;;;;;;37.72;15.68;;;12.20;73.50;;;;;;5009406;28;20141;-55
2024/01/25 11:59:08;;;;;;;34.65;15.80;;;12.30;73.10;;;;;;5011883;28;20069;-54
2024/01/25 12:01:35;;;;;;;34.03;14.82;;;12.30;73.00;;;;;;5009863;28;20120;-54
2024/01/25 12:04:02;;;;;;;32.38;15.68;;;12.30;72.90;;;;;;5011027;28;20048;-53
2024/01/25 12:06:30;;;;;;;31.00;14.38;;;12.40;73.20;;;;;;5012280;28;20496;-55
2024/01/25 12:09:08;;;;;;;37.30;17.02;;;12.40;73.10;;;;;;5012537;28;20042;-52
2024/01/25 12:11:35;;;;;;;29.73;16.13;;;12.50;72.70;;;;;;5011683;28;20049;-51
2024/01/25 12:14:01;;;;;;;37.58;16.65;;;12.50;72.80;;;;;;5008002;28;20554;-52
2024/01/25 12:16:29;;;;;;;33.45;17.20;;;12.60;72.60;;;;;;5011695;28;20381;-53
2024/01/25 12:18:56;;;;;;;34.55;16.05;;;12.60;72.40;;;;;;5009131;28;20038;-54
2024/01/25 12:21:27;;;;;;;32.30;16.17;;;12.70;72.30;;;;;;5011991;28;20042;-55
2024/01/25 12:23:53;;;;;;;30.63;15.65;;;12.70;72.20;;;;;;5011795;28;20120;-55
2024/01/25 12:26:20;;;;;;;32.92;15.05;;;12.70;72.10;;;;;;5012191;28;20042;-54
2024/01/25 12:28:49;;;;;;;31.60;15.40;;;12.80;71.90;;;;;;5010364;28;20042;-52
2024/01/25 12:31:16;;;;;;;32.92;15.27;;;12.80;71.90;;;;;;5009200;28;20045;-53
2024/01/25 12:33:43;;;;;;;37.33;14.88;;;12.90;72.10;;;;;;5011909;28;20095;-55
2024/01/25 12:36:10;;;;;;;32.67;15.07;;;12.90;72.10;;;;;;5011803;28;20662;-54
2024/01/25 12:38:37;;;;;;;39.42;14.90;;;13.00;71.90;;;;;;5009207;28;20145;-55
2024/01/25 12:41:04;;;;;;;26.33;12.10;;;13.00;71.60;;;;;;5011620;28;20038;-55
2024/01/25 12:43:31;;;;;;;31.30;13.60;;;13.10;71.50;;;;;;5007379;28;20529;-54